台北 の空港の天気 - METARとTAF

台湾桃園国際空港 ( RCTP / TPE ) - 台湾 台北市
飛行場実況気象(Metar)
観測時間12/01 03:30 CST (11/30 19:30 UTC)
風向・風速北東 10m/s
視程8000m
天気現象弱い雨
少しの雲 雲底高度 240m
全天の4割程度の雲 雲底高度 460m
全天の8割程度の雲 雲底高度 910m
気温18℃
湿度88%
気圧1022hPa
METARRCTP 301930Z 05019KT 8000 -RA FEW008 SCT015 BKN030 18/16 Q1022 NOSIG RMK A3020
過去の天気等 Google飛行場航空写真 Wunderground天気予報

過去48時間のMETAR

飛行場予報(TAF)
発表時間: 12/01 01:00 CST (11/30 17:00 UTC)
予報対象時間: 1日2時 CST ~ 2日8時 CST
風向・風速北東 13m/s
視程10km以上
少しの雲 雲底高度 460m
全天の8割程度の雲 雲底高度 610m
1日2時 CST ~ 1日8時 CST に一時的に
風向・風速東北東 10m/s
視程3200m
天気現象
少しの雲 雲底高度 240m
全天の8割程度の雲 雲底高度 340m
1日11時 CST ~ 1日17時 CST に一時的に
視程4000m
天気現象
少しの雲 雲底高度 300m
全天の8割程度の雲 雲底高度 430m
1日17時 CST ~ 1日22時 CST に一時的に
風向・風速東北東 10m/s
1日22時 CST ~ 2日2時 CST に一時的に
視程5000m
天気現象
少しの雲 雲底高度 300m
全天の8割程度の雲 雲底高度 430m
2日2時 CST ~ 2日8時 CST に一時的に
視程5000m
天気現象
少しの雲 雲底高度 300m
全天の8割程度の雲 雲底高度 430m
TAF RCTP 301700Z 3018/0124 04025KT 9999 FEW015 BKN020
TEMPO 3018/3024 06020KT 3200 RA FEW008 BKN011
TEMPO 0103/0109 4000 RA FEW010 BKN014
TEMPO 0109/0114 06020KT
TEMPO 0114/0118 5000 RA FEW010 BKN014
TEMPO 0118/0124 5000 RA FEW010 BKN014